AAL103 KMDW-KASE
Flight info
| Callsign | AAL103 |
|---|---|
| Flight time | N/A |
| Altitude | 30000 |
| Route | PEKUE PIPPN ROTTN PWE HLC MMUTT HAREI1 |
| Aircraft | E75L/M-SDE3GILORVW/S |
Departure
| Time | N/A |
|---|---|
| Airport | Chicago Midway International Airport (KMDW) |
Arrival
| Time | 2026-04-30 18:47 |
|---|---|
| Airport | Aspen-Pitkin County Airport (Sardy Field) (KASE) |
| Time | Latitude | Longitude | Altitude | Speed | Heading |
|---|---|---|---|---|---|
| 2026-04-30 17:39 | 39.14787 | -100.80294 | 30129 ft | 373 kts | 257° |
| 2026-04-30 17:42 | 39.08499 | -101.12750 | 30131 ft | 374 kts | 257° |
| 2026-04-30 17:43 | 39.05327 | -101.28960 | 30115 ft | 374 kts | 257° |
| 2026-04-30 17:44 | 39.01488 | -101.48406 | 30118 ft | 374 kts | 256° |
| 2026-04-30 17:47 | 38.95676 | -101.77533 | 30109 ft | 373 kts | 256° |
| 2026-04-30 17:48 | 38.91123 | -102.00104 | 30114 ft | 372 kts | 256° |
| 2026-04-30 17:50 | 38.85843 | -102.25920 | 30113 ft | 373 kts | 256° |
| 2026-04-30 17:52 | 38.81863 | -102.45260 | 30104 ft | 374 kts | 256° |
| 2026-04-30 17:54 | 38.75812 | -102.74229 | 30107 ft | 374 kts | 256° |
| 2026-04-30 17:56 | 38.70395 | -102.99884 | 30113 ft | 374 kts | 255° |
| 2026-04-30 17:58 | 38.66277 | -103.19141 | 30114 ft | 373 kts | 255° |
| 2026-04-30 18:00 | 38.60746 | -103.44676 | 30099 ft | 372 kts | 255° |
| 2026-04-30 18:01 | 38.57314 | -103.60535 | 30099 ft | 369 kts | 255° |
| 2026-04-30 18:02 | 38.53128 | -103.79412 | 30105 ft | 367 kts | 255° |
| 2026-04-30 18:04 | 38.49241 | -103.96959 | 30107 ft | 360 kts | 255° |
| 2026-04-30 18:06 | 38.43739 | -104.21554 | 30104 ft | 360 kts | 254° |
| 2026-04-30 18:08 | 38.38891 | -104.43097 | 30091 ft | 362 kts | 255° |
| 2026-04-30 18:10 | 38.33240 | -104.67802 | 30092 ft | 364 kts | 254° |
| 2026-04-30 18:11 | 38.28266 | -104.89505 | 30088 ft | 367 kts | 253° |
| 2026-04-30 18:13 | 38.24658 | -105.05019 | 30097 ft | 365 kts | 254° |
| 2026-04-30 18:14 | 38.21063 | -105.20534 | 30103 ft | 367 kts | 253° |
| 2026-04-30 18:15 | 38.16697 | -105.39074 | 30098 ft | 364 kts | 254° |
| 2026-04-30 18:16 | 38.13775 | -105.51358 | 30081 ft | 362 kts | 253° |
| 2026-04-30 18:17 | 38.12319 | -105.57470 | 30083 ft | 362 kts | 253° |
| 2026-04-30 18:18 | 38.10186 | -105.66643 | 30038 ft | 363 kts | 258° |
| 2026-04-30 18:18 | 38.10059 | -105.69836 | 30080 ft | 365 kts | 270° |
| 2026-04-30 18:18 | 38.10580 | -105.73010 | 30101 ft | 375 kts | 282° |
| 2026-04-30 18:18 | 38.11760 | -105.76014 | 30132 ft | 389 kts | 294° |
| 2026-04-30 18:19 | 38.13603 | -105.78631 | 30117 ft | 408 kts | 309° |
| 2026-04-30 18:19 | 38.15933 | -105.80798 | 30064 ft | 419 kts | 313° |
| 2026-04-30 18:19 | 38.18314 | -105.82900 | 30071 ft | 415 kts | 313° |
| 2026-04-30 18:20 | 38.23127 | -105.87039 | 30046 ft | 419 kts | 314° |
| 2026-04-30 18:20 | 38.27980 | -105.91129 | 30051 ft | 418 kts | 315° |
| 2026-04-30 18:20 | 38.30395 | -105.93163 | 29900 ft | 412 kts | 314° |
| 2026-04-30 18:21 | 38.32751 | -105.95137 | 29593 ft | 397 kts | 315° |
| 2026-04-30 18:21 | 38.35034 | -105.97046 | 29139 ft | 391 kts | 315° |
| 2026-04-30 18:21 | 38.37298 | -105.98955 | 28610 ft | 389 kts | 315° |
| 2026-04-30 18:21 | 38.39545 | -106.00839 | 28044 ft | 386 kts | 316° |
| 2026-04-30 18:22 | 38.41764 | -106.02696 | 27553 ft | 387 kts | 316° |
| 2026-04-30 18:22 | 38.46294 | -106.06548 | 26503 ft | 394 kts | 319° |
| 2026-04-30 18:22 | 38.48585 | -106.08481 | 26118 ft | 395 kts | 319° |
| 2026-04-30 18:23 | 38.50879 | -106.10384 | 25670 ft | 391 kts | 320° |
| 2026-04-30 18:23 | 38.53154 | -106.12249 | 25414 ft | 388 kts | 321° |
| 2026-04-30 18:23 | 38.55428 | -106.14119 | 25120 ft | 388 kts | 321° |
| 2026-04-30 18:23 | 38.57695 | -106.15986 | 24840 ft | 387 kts | 322° |
| 2026-04-30 18:24 | 38.62208 | -106.19709 | 24261 ft | 385 kts | 322° |
| 2026-04-30 18:24 | 38.64449 | -106.21565 | 23989 ft | 383 kts | 323° |
| 2026-04-30 18:24 | 38.66685 | -106.23415 | 23686 ft | 382 kts | 323° |
| 2026-04-30 18:25 | 38.68911 | -106.25248 | 23510 ft | 378 kts | 323° |
| 2026-04-30 18:25 | 38.73367 | -106.28938 | 22928 ft | 379 kts | 323° |
| 2026-04-30 18:25 | 38.75572 | -106.30771 | 22603 ft | 378 kts | 323° |
| 2026-04-30 18:26 | 38.79964 | -106.34416 | 22039 ft | 374 kts | 323° |
| 2026-04-30 18:26 | 38.82155 | -106.36232 | 21742 ft | 374 kts | 323° |
| 2026-04-30 18:26 | 38.84329 | -106.38060 | 21460 ft | 373 kts | 323° |
| 2026-04-30 18:27 | 38.88658 | -106.41667 | 20905 ft | 370 kts | 323° |
| 2026-04-30 18:27 | 38.90818 | -106.43462 | 20609 ft | 368 kts | 323° |
| 2026-04-30 18:28 | 38.95089 | -106.47074 | 19825 ft | 363 kts | 324° |
| 2026-04-30 18:28 | 38.97188 | -106.48844 | 19480 ft | 359 kts | 324° |
| 2026-04-30 18:28 | 39.01366 | -106.52366 | 18496 ft | 356 kts | 324° |
| 2026-04-30 18:29 | 39.03422 | -106.54096 | 17975 ft | 350 kts | 324° |
| 2026-04-30 18:29 | 39.09487 | -106.58428 | 16946 ft | 319 kts | 343° |
| 2026-04-30 18:30 | 39.13716 | -106.59804 | 16679 ft | 313 kts | 344° |
| 2026-04-30 18:30 | 39.17933 | -106.61204 | 16376 ft | 311 kts | 344° |
| 2026-04-30 18:31 | 39.19996 | -106.61886 | 16244 ft | 302 kts | 344° |
| 2026-04-30 18:31 | 39.24005 | -106.63215 | 15852 ft | 293 kts | 344° |
| 2026-04-30 18:32 | 39.27887 | -106.64496 | 15378 ft | 283 kts | 343° |
| 2026-04-30 18:32 | 39.29767 | -106.65127 | 15190 ft | 276 kts | 343° |
| 2026-04-30 18:32 | 39.33328 | -106.66718 | 14773 ft | 266 kts | 335° |
| 2026-04-30 18:33 | 39.35035 | -106.67646 | 14528 ft | 266 kts | 336° |
| 2026-04-30 18:33 | 39.38432 | -106.69388 | 14241 ft | 254 kts | 338° |
| 2026-04-30 18:33 | 39.40086 | -106.70072 | 14229 ft | 245 kts | 342° |
| 2026-04-30 18:34 | 39.41697 | -106.70677 | 14259 ft | 235 kts | 342° |
| 2026-04-30 18:34 | 39.44571 | -106.71772 | 14190 ft | 196 kts | 342° |
| 2026-04-30 18:34 | 39.45852 | -106.72264 | 14103 ft | 190 kts | 342° |
| 2026-04-30 18:35 | 39.47021 | -106.72977 | 13932 ft | 182 kts | 321° |
| 2026-04-30 18:35 | 39.47845 | -106.74165 | 13905 ft | 175 kts | 306° |
| 2026-04-30 18:35 | 39.48549 | -106.75454 | 13910 ft | 176 kts | 305° |
| 2026-04-30 18:36 | 39.49925 | -106.77988 | 13879 ft | 165 kts | 305° |
| 2026-04-30 18:36 | 39.50569 | -106.79175 | 13786 ft | 157 kts | 304° |
| 2026-04-30 18:36 | 39.51487 | -106.81653 | 13809 ft | 154 kts | 278° |
| 2026-04-30 18:37 | 39.51599 | -106.83049 | 13802 ft | 156 kts | 275° |
| 2026-04-30 18:37 | 39.51694 | -106.84447 | 13757 ft | 156 kts | 277° |
| 2026-04-30 18:37 | 39.51798 | -106.85842 | 13692 ft | 156 kts | 276° |
| 2026-04-30 18:37 | 39.51894 | -106.87227 | 13633 ft | 153 kts | 276° |
| 2026-04-30 18:38 | 39.51997 | -106.88598 | 13576 ft | 153 kts | 276° |
| 2026-04-30 18:38 | 39.52032 | -106.89974 | 13574 ft | 154 kts | 269° |
| 2026-04-30 18:38 | 39.51902 | -106.91354 | 13494 ft | 155 kts | 260° |
| 2026-04-30 18:38 | 39.51610 | -106.92701 | 13378 ft | 154 kts | 252° |
| 2026-04-30 18:39 | 39.51165 | -106.93968 | 13293 ft | 156 kts | 243° |
| 2026-04-30 18:39 | 39.50562 | -106.95140 | 13206 ft | 157 kts | 234° |
| 2026-04-30 18:39 | 39.49826 | -106.96184 | 13142 ft | 160 kts | 225° |
| 2026-04-30 18:39 | 39.48948 | -106.97051 | 13014 ft | 158 kts | 213° |
| 2026-04-30 18:40 | 39.47994 | -106.97741 | 12929 ft | 157 kts | 204° |
| 2026-04-30 18:40 | 39.46970 | -106.98213 | 12825 ft | 156 kts | 198° |
| 2026-04-30 18:40 | 39.45895 | -106.98505 | 12799 ft | 159 kts | 192° |
| 2026-04-30 18:40 | 39.44769 | -106.98598 | 12643 ft | 164 kts | 178° |
| 2026-04-30 18:41 | 39.43644 | -106.98370 | 12470 ft | 163 kts | 168° |
| 2026-04-30 18:41 | 39.42543 | -106.98030 | 12362 ft | 162 kts | 168° |
| 2026-04-30 18:41 | 39.41446 | -106.97691 | 12209 ft | 163 kts | 168° |
| 2026-04-30 18:41 | 39.40341 | -106.97367 | 12005 ft | 162 kts | 169° |
| 2026-04-30 18:42 | 39.39252 | -106.97051 | 11823 ft | 162 kts | 167° |
| 2026-04-30 18:42 | 39.37061 | -106.96382 | 11401 ft | 161 kts | 168° |
| 2026-04-30 18:42 | 39.35962 | -106.96064 | 11120 ft | 161 kts | 169° |
| 2026-04-30 18:45 | 39.27405 | -106.89241 | 8826 ft | 154 kts | 158° |
| 2026-04-30 18:45 | 39.26416 | -106.88796 | 8669 ft | 147 kts | 162° |
| 2026-04-30 18:45 | 39.25484 | -106.88352 | 8492 ft | 141 kts | 163° |
| 2026-04-30 18:46 | 39.24511 | -106.87926 | 8001 ft | 149 kts | 164° |
| 2026-04-30 18:46 | 39.23583 | -106.87474 | 7728 ft | 133 kts | 163° |
| 2026-04-30 18:46 | 39.22726 | -106.87077 | 7726 ft | 118 kts | 159° |
| 2026-04-30 18:46 | 39.22095 | -106.86787 | 7767 ft | 74 kts | 161° |
| 2026-04-30 18:47 | 39.21720 | -106.86618 | 7802 ft | 46 kts | 154° |
| 2026-04-30 18:47 | 39.21495 | -106.86482 | 7821 ft | 17 kts | 134° |
| 2026-04-30 18:47 | 39.21516 | -106.86385 | 7817 ft | 10 kts | 9° |
| 2026-04-30 18:47 | 39.21589 | -106.86412 | 7815 ft | 13 kts | 335° |
| 2026-04-30 18:48 | 39.21690 | -106.86469 | 7805 ft | 19 kts | 339° |
| 2026-04-30 18:48 | 39.21821 | -106.86529 | 7796 ft | 19 kts | 343° |
| 2026-04-30 18:48 | 39.21874 | -106.86521 | 7786 ft | 7 kts | 44° |
| 2026-04-30 18:48 | 39.21903 | -106.86453 | 7779 ft | 3 kts | 71° |
| 2026-04-30 18:58 | 39.21850 | -106.86432 | 7781 ft | 0 kts | 75° |